Time;durP1;ratioP1;P1;durP2;ratioP2;P2;SDS_P1;SDS_P2;PMS_P1;PMS_P2;Temp;Humidity;BMP_temperature;BMP_pressure;BME280_temperature;BME280_humidity;BME280_pressure;Samples;Min_cycle;Max_cycle;Signal;HPM_P1;HPM_P2
2022/03/22 00:01:00;;;;;;;41.58;19.63;;;9.20;99.90;;;;;;5023591;28;20408;-65
2022/03/22 00:03:26;;;;;;;37.85;19.38;;;9.20;99.90;;;;;;5032084;28;20030;-62
2022/03/22 00:05:52;;;;;;;36.30;19.38;;;9.20;99.90;;;;;;5022233;28;20030;-62
2022/03/22 00:08:18;;;;;;;36.80;19.15;;;9.10;99.90;;;;;;5010936;28;20037;-65
2022/03/22 00:10:44;;;;;;;40.45;19.55;;;9.10;99.90;;;;;;5028398;28;20022;-64
2022/03/22 00:13:10;;;;;;;39.80;22.40;;;9.10;99.90;;;;;;5029875;28;20056;-66
2022/03/22 00:15:37;;;;;;;36.67;20.40;;;9.10;99.90;;;;;;5019653;28;20368;-64
2022/03/22 00:18:04;;;;;;;38.58;19.50;;;9.10;99.90;;;;;;5013668;28;20088;-63
2022/03/22 00:20:30;;;;;;;39.83;20.17;;;9.10;99.90;;;;;;5014512;28;20030;-62
2022/03/22 00:22:57;;;;;;;37.13;19.35;;;9.10;99.90;;;;;;5027162;28;20505;-63
2022/03/22 00:25:23;;;;;;;40.05;19.02;;;9.10;99.90;;;;;;5031864;28;20128;-66
2022/03/22 00:27:52;;;;;;;38.88;19.38;;;9.10;99.90;;;;;;5028439;28;20466;-63
2022/03/22 00:30:24;;;;;;;38.55;19.48;;;9.10;99.90;;;;;;5023620;28;20025;-64
2022/03/22 00:32:53;;;;;;;;;;;9.00;99.90;;;;;;5034849;28;20041;-66
2022/03/22 00:35:21;;;;;;;41.20;20.33;;;9.00;99.90;;;;;;5021323;28;19913;-64
2022/03/22 00:37:49;;;;;;;41.03;20.23;;;9.00;99.90;;;;;;5027516;28;20105;-63
2022/03/22 00:40:18;;;;;;;43.35;20.95;;;9.00;99.90;;;;;;5026361;28;20029;-64
2022/03/22 00:42:48;;;;;;;48.03;24.13;;;8.90;99.90;;;;;;5033132;28;20440;-64
2022/03/22 00:45:18;;;;;;;40.13;19.92;;;8.90;99.90;;;;;;5019271;28;20550;-65
2022/03/22 00:47:48;;;;;;;38.38;19.83;;;8.90;99.90;;;;;;5030100;28;20394;-65
2022/03/22 00:50:16;;;;;;;37.55;18.92;;;9.00;99.90;;;;;;5035266;28;20056;-64
2022/03/22 00:52:42;;;;;;;38.00;20.70;;;8.90;99.90;;;;;;5022470;28;20030;-66
2022/03/22 00:55:08;;;;;;;40.70;19.85;;;8.90;99.90;;;;;;5030792;28;20034;-64
2022/03/22 00:57:34;;;;;;;44.58;20.25;;;8.90;99.90;;;;;;5026874;28;20022;-63
2022/03/22 01:00:07;;;;;;;41.38;20.00;;;8.90;99.90;;;;;;5027426;28;20037;-66
2022/03/22 01:02:40;;;;;;;41.00;21.10;;;8.90;99.90;;;;;;5032749;28;20128;-63
2022/03/22 01:05:11;;;;;;;40.78;20.27;;;8.80;99.90;;;;;;5034396;28;20052;-65
2022/03/22 01:07:37;;;;;;;39.58;20.25;;;8.80;99.90;;;;;;5033272;28;20025;-66
2022/03/22 01:10:05;;;;;;;46.90;21.33;;;8.80;99.90;;;;;;5027763;28;20026;-63
2022/03/22 01:12:36;;;;;;;41.10;20.58;;;8.80;99.90;;;;;;5033041;28;20044;-63
2022/03/22 01:15:04;;;;;;;40.63;21.02;;;8.80;99.90;;;;;;5034708;28;20112;-65
2022/03/22 01:17:31;;;;;;;45.45;21.73;;;8.80;99.90;;;;;;5029426;28;20433;-65
2022/03/22 01:19:57;;;;;;;40.03;21.05;;;8.80;99.90;;;;;;5028405;28;20083;-60
2022/03/22 01:22:25;;;;;;;38.25;20.35;;;8.70;99.90;;;;;;5033163;28;20033;-63
2022/03/22 01:24:52;;;;;;;42.80;20.80;;;8.70;99.90;;;;;;4997511;28;1049447;-64
2022/03/22 01:27:21;;;;;;;43.28;20.88;;;8.70;99.90;;;;;;5015843;28;20022;-66
2022/03/22 01:29:47;;;;;;;41.50;21.13;;;8.60;99.90;;;;;;5027160;28;20030;-63
2022/03/22 01:32:13;;;;;;;40.22;21.38;;;8.60;99.90;;;;;;5028611;28;20095;-67
2022/03/22 01:34:39;;;;;;;44.10;24.40;;;8.60;99.90;;;;;;5019452;28;20408;-66
2022/03/22 01:37:05;;;;;;;49.53;26.95;;;8.50;99.90;;;;;;5034204;28;20036;-64
2022/03/22 01:39:31;;;;;;;57.17;32.42;;;8.50;99.90;;;;;;5030025;28;20025;-63
2022/03/22 01:41:57;;;;;;;48.42;26.58;;;8.50;99.90;;;;;;5028874;28;20033;-65
2022/03/22 01:44:26;;;;;;;39.90;22.40;;;8.50;99.90;;;;;;5027984;28;20041;-64
2022/03/22 01:46:56;;;;;;;42.00;21.33;;;8.50;99.90;;;;;;5029414;28;20022;-62
2022/03/22 01:49:22;;;;;;;41.25;20.90;;;8.50;99.90;;;;;;5030250;28;20029;-64
2022/03/22 01:51:49;;;;;;;38.88;20.05;;;8.40;99.90;;;;;;5027527;28;20029;-64
2022/03/22 01:54:15;;;;;;;43.03;20.48;;;8.40;99.90;;;;;;5022935;28;20117;-65
2022/03/22 01:56:41;;;;;;;44.70;22.38;;;8.40;99.90;;;;;;5028978;28;20033;-64
2022/03/22 01:59:07;;;;;;;39.40;20.30;;;8.40;99.90;;;;;;5030501;28;20072;-64
2022/03/22 02:07:04;;;;;;;48.90;27.52;;;8.30;99.90;;;;;;5027565;28;20032;-63
2022/03/22 02:09:29;;;;;;;46.85;25.85;;;8.30;99.90;;;;;;5032034;28;20079;-66
2022/03/22 02:11:55;;;;;;;49.45;26.52;;;8.30;99.90;;;;;;5029012;28;20033;-66
2022/03/22 02:14:21;;;;;;;59.25;37.55;;;8.30;99.90;;;;;;5022169;28;20030;-65
2022/03/22 02:16:46;;;;;;;70.93;44.08;;;8.20;99.90;;;;;;5026446;28;20029;-66
2022/03/22 02:19:14;;;;;;;49.83;22.25;;;8.20;99.90;;;;;;5030920;28;20018;-66
2022/03/22 02:21:42;;;;;;;43.35;21.73;;;8.20;99.90;;;;;;5016737;28;20030;-62
2022/03/22 02:24:08;;;;;;;92.22;55.55;;;8.20;99.90;;;;;;5027300;28;20041;-64
2022/03/22 02:26:34;;;;;;;46.15;24.02;;;8.20;99.90;;;;;;5018794;28;20448;-65
2022/03/22 02:28:59;;;;;;;42.67;22.63;;;8.20;99.90;;;;;;5032056;28;20033;-66
2022/03/22 02:31:27;;;;;;;45.22;22.73;;;8.20;99.90;;;;;;5026404;28;20053;-65
2022/03/22 02:33:54;;;;;;;58.90;33.88;;;8.20;99.90;;;;;;5025559;28;20425;-64
2022/03/22 02:36:20;;;;;;;49.47;27.85;;;8.20;99.90;;;;;;5028636;28;20053;-66
2022/03/22 02:38:45;;;;;;;85.80;46.97;;;8.20;99.90;;;;;;5033972;28;20411;-65
2022/03/22 02:41:19;;;;;;;104.30;58.13;;;8.20;99.90;;;;;;5017285;28;20025;-63
2022/03/22 02:43:46;;;;;;;53.10;30.42;;;8.20;99.90;;;;;;5026312;28;20068;-64
2022/03/22 02:46:11;;;;;;;63.60;36.75;;;8.20;99.90;;;;;;5025241;28;20041;-64
2022/03/22 02:48:37;;;;;;;44.60;23.27;;;8.10;99.90;;;;;;5033049;28;20038;-62
2022/03/22 02:51:03;;;;;;;47.10;24.02;;;8.10;99.90;;;;;;5019799;28;20066;-66
2022/03/22 02:53:29;;;;;;;46.72;24.50;;;8.10;99.90;;;;;;5030247;28;20041;-63
2022/03/22 02:55:55;;;;;;;44.13;22.98;;;8.10;99.90;;;;;;5024769;28;20040;-65
2022/03/22 02:58:20;;;;;;;43.72;22.73;;;8.10;99.90;;;;;;5029657;28;20041;-64
2022/03/22 03:00:46;;;;;;;48.65;22.85;;;8.10;99.90;;;;;;5020228;28;20040;-65
2022/03/22 03:03:11;;;;;;;44.35;22.33;;;8.10;99.90;;;;;;5029901;28;20033;-65
2022/03/22 03:05:37;;;;;;;47.40;22.88;;;8.00;99.90;;;;;;5019512;28;20422;-63
2022/03/22 03:08:03;;;;;;;47.83;23.67;;;8.00;99.90;;;;;;5020785;28;20075;-64
2022/03/22 03:10:29;;;;;;;45.78;23.90;;;8.00;99.90;;;;;;5032548;28;20355;-65
2022/03/22 03:13:02;;;;;;;47.78;24.15;;;8.00;99.90;;;;;;5017487;28;20046;-64
2022/03/22 03:15:29;;;;;;;47.80;24.60;;;8.00;99.90;;;;;;5013671;28;20062;-65
2022/03/22 03:17:55;;;;;;;49.80;25.63;;;8.00;99.90;;;;;;5029569;28;20025;-63
2022/03/22 03:20:20;;;;;;;47.90;24.05;;;7.90;99.90;;;;;;5017722;28;20502;-64
2022/03/22 03:22:46;;;;;;;50.40;25.00;;;7.90;99.90;;;;;;5031836;28;20039;-66
2022/03/22 03:25:13;;;;;;;50.83;24.60;;;7.90;99.90;;;;;;5029912;28;20478;-64
2022/03/22 03:27:38;;;;;;;47.90;25.13;;;7.90;99.90;;;;;;5031750;28;20078;-63
2022/03/22 03:30:06;;;;;;;46.50;24.55;;;7.90;99.90;;;;;;5016891;28;20030;-63
2022/03/22 03:32:32;;;;;;;52.90;25.27;;;7.90;99.90;;;;;;5021377;28;20025;-62
2022/03/22 03:34:58;;;;;;;51.60;24.17;;;7.90;99.90;;;;;;5028344;28;20501;-64
2022/03/22 03:37:24;;;;;;;50.10;24.45;;;7.90;99.90;;;;;;5033343;28;20212;-66
2022/03/22 03:39:50;;;;;;;53.20;26.50;;;7.90;99.90;;;;;;5027654;28;20048;-63
2022/03/22 03:42:16;;;;;;;49.28;25.40;;;7.80;99.90;;;;;;5027446;28;20063;-67
2022/03/22 03:47:26;;;;;;;52.65;25.83;;;7.80;99.90;;;;;;5032981;28;20040;-66
2022/03/22 03:49:55;;;;;;;55.85;26.33;;;7.80;99.90;;;;;;5017143;28;20406;-62
2022/03/22 03:52:23;;;;;;;49.78;24.63;;;7.80;99.90;;;;;;5026693;28;20024;-65
2022/03/22 03:54:49;;;;;;;54.10;26.20;;;7.80;99.90;;;;;;5022553;28;20054;-64
2022/03/22 03:57:15;;;;;;;55.40;26.15;;;7.80;99.90;;;;;;5032952;28;20071;-61
2022/03/22 03:59:41;;;;;;;50.88;25.67;;;7.80;99.90;;;;;;5024919;28;20108;-64
2022/03/22 04:02:08;;;;;;;53.33;26.50;;;7.80;99.90;;;;;;5028059;28;20462;-65
2022/03/22 04:04:35;;;;;;;52.15;26.25;;;7.80;99.90;;;;;;5027517;28;20042;-66
2022/03/22 04:07:01;;;;;;;55.22;25.92;;;7.80;99.90;;;;;;5021562;28;20041;-64
2022/03/22 04:09:27;;;;;;;52.05;26.15;;;7.80;99.90;;;;;;5014224;28;20096;-65
2022/03/22 04:11:54;;;;;;;57.40;27.63;;;7.80;99.90;;;;;;5029501;28;20033;-63
2022/03/22 04:14:19;;;;;;;50.38;26.52;;;7.80;99.90;;;;;;5024716;28;20120;-63
2022/03/22 04:16:46;;;;;;;56.05;27.30;;;7.80;99.90;;;;;;5018541;28;20151;-64
2022/03/22 04:19:12;;;;;;;55.42;26.25;;;7.80;99.90;;;;;;5020660;28;20026;-64
2022/03/22 04:21:39;;;;;;;52.83;26.30;;;7.70;99.90;;;;;;5015791;28;20033;-64
2022/03/22 04:24:09;;;;;;;54.55;27.52;;;7.70;99.90;;;;;;5026677;28;20077;-65
2022/03/22 04:26:35;;;;;;;55.33;28.77;;;7.70;99.90;;;;;;5020097;28;20044;-63
2022/03/22 04:34:30;;;;;;;56.95;26.80;;;7.70;99.90;;;;;;5014745;28;20048;-67
2022/03/22 04:36:55;;;;;;;53.38;28.02;;;7.70;99.90;;;;;;5016667;28;20387;-64
2022/03/22 04:39:25;;;;;;;56.22;27.55;;;7.70;99.90;;;;;;5025664;28;20033;-65
2022/03/22 04:41:51;;;;;;;60.75;29.17;;;7.60;99.90;;;;;;5012986;28;20357;-65
2022/03/22 04:44:17;;;;;;;59.50;28.23;;;7.60;99.90;;;;;;5011470;28;20032;-62
2022/03/22 04:46:43;;;;;;;57.70;28.45;;;7.60;99.90;;;;;;5013019;28;20042;-65
2022/03/22 04:49:09;;;;;;;57.88;27.20;;;7.60;99.90;;;;;;5014584;28;20390;-66
2022/03/22 04:57:03;;;;;;;55.22;28.98;;;7.60;99.90;;;;;;5012730;28;20033;-63
2022/03/22 04:59:28;;;;;;;59.75;28.00;;;7.60;99.90;;;;;;5011772;28;20030;-66
2022/03/22 05:01:54;;;;;;;60.70;29.60;;;7.50;99.90;;;;;;5009107;28;20103;-64
2022/03/22 05:04:20;;;;;;;59.13;29.33;;;7.60;99.90;;;;;;5011791;28;20022;-62
2022/03/22 05:06:46;;;;;;;58.92;29.27;;;7.50;99.90;;;;;;5011861;28;20046;-64
2022/03/22 05:09:11;;;;;;;56.38;26.80;;;7.50;99.90;;;;;;5012446;28;20112;-63
2022/03/22 05:11:37;;;;;;;61.55;29.25;;;7.50;99.90;;;;;;5012198;28;20037;-63
2022/03/22 05:14:03;;;;;;;56.80;28.42;;;7.50;99.90;;;;;;5012878;28;20458;-65
2022/03/22 05:16:35;;;;;;;62.15;29.63;;;7.50;99.90;;;;;;5014344;28;20121;-66
2022/03/22 05:19:01;;;;;;;60.88;30.42;;;7.50;99.90;;;;;;5015404;28;20030;-62
2022/03/22 05:21:27;;;;;;;64.75;30.52;;;7.50;99.90;;;;;;5015395;28;20033;-62
2022/03/22 05:23:54;;;;;;;64.30;29.40;;;7.50;99.90;;;;;;5023893;28;20381;-63
2022/03/22 05:26:19;;;;;;;60.78;30.15;;;7.50;99.90;;;;;;5029431;28;20022;-66
2022/03/22 05:28:45;;;;;;;64.07;31.38;;;7.50;99.90;;;;;;5018247;28;20022;-62
2022/03/22 05:31:13;;;;;;;65.38;31.42;;;7.50;99.90;;;;;;5032425;28;20022;-65
2022/03/22 05:33:39;;;;;;;61.05;30.20;;;7.50;99.90;;;;;;5016164;28;20104;-65
2022/03/22 05:36:05;;;;;;;54.42;29.05;;;7.50;99.90;;;;;;5015168;28;20087;-62
2022/03/22 05:38:31;;;;;;;63.92;30.25;;;7.50;99.90;;;;;;5015945;28;20367;-62
2022/03/22 05:40:58;;;;;;;59.10;29.20;;;7.50;99.90;;;;;;5015028;28;20037;-62
2022/03/22 05:43:26;;;;;;;58.75;28.63;;;7.50;99.90;;;;;;5011480;28;20522;-62
2022/03/22 05:45:52;;;;;;;56.72;30.33;;;7.50;99.90;;;;;;4999865;28;20029;-63
2022/03/22 05:48:18;;;;;;;62.35;29.63;;;7.40;99.90;;;;;;5015768;28;20025;-62
2022/03/22 05:50:45;;;;;;;65.78;30.30;;;7.40;99.90;;;;;;5022161;28;20383;-62
2022/03/22 05:53:11;;;;;;;62.80;31.00;;;7.40;99.90;;;;;;5013809;28;20208;-63
2022/03/22 05:55:37;;;;;;;61.95;30.42;;;7.40;99.90;;;;;;5013932;28;20038;-62
2022/03/22 05:58:04;;;;;;;61.10;30.42;;;7.40;99.90;;;;;;5014258;28;20041;-62
2022/03/22 06:00:29;;;;;;;59.97;30.38;;;7.40;99.90;;;;;;5015275;28;20077;-62
2022/03/22 06:02:55;;;;;;;66.68;30.98;;;7.40;99.90;;;;;;5015712;28;20042;-62
2022/03/22 06:05:21;;;;;;;65.97;31.35;;;7.40;99.90;;;;;;5015631;28;20481;-63
2022/03/22 06:07:47;;;;;;;63.35;32.03;;;7.50;99.90;;;;;;5015353;28;20057;-63
2022/03/22 06:10:13;;;;;;;65.10;32.47;;;7.50;99.90;;;;;;5014448;28;20061;-64
2022/03/22 06:12:41;;;;;;;61.33;30.90;;;7.50;99.90;;;;;;5014370;28;20045;-62
2022/03/22 06:15:15;;;;;;;62.25;30.40;;;7.50;99.90;;;;;;5014590;28;20030;-62
2022/03/22 06:17:46;;;;;;;61.63;31.38;;;7.50;99.90;;;;;;5015427;28;20028;-63
2022/03/22 06:20:12;;;;;;;64.55;31.10;;;7.60;99.90;;;;;;5014230;28;20501;-63
2022/03/22 06:22:38;;;;;;;63.03;30.73;;;7.60;99.90;;;;;;5014972;28;20030;-62
2022/03/22 06:25:04;;;;;;;63.95;32.60;;;7.60;99.90;;;;;;5014502;28;20060;-62
2022/03/22 06:27:29;;;;;;;61.00;31.00;;;7.60;99.90;;;;;;5016409;28;20054;-63
2022/03/22 06:29:55;;;;;;;62.50;31.27;;;7.70;99.90;;;;;;5014383;28;20061;-62
2022/03/22 06:32:21;;;;;;;63.10;33.17;;;7.70;99.90;;;;;;5015097;28;20038;-62
2022/03/22 06:34:47;;;;;;;65.13;32.72;;;7.70;99.90;;;;;;5014730;28;20038;-62
2022/03/22 06:37:13;;;;;;;64.22;31.77;;;7.80;99.90;;;;;;5014421;28;20070;-63
2022/03/22 06:39:39;;;;;;;61.60;31.40;;;7.80;99.90;;;;;;5014623;28;20034;-63
2022/03/22 06:42:05;;;;;;;68.35;31.90;;;7.90;99.90;;;;;;5016484;28;20084;-62
2022/03/22 06:44:31;;;;;;;63.42;31.95;;;7.90;99.90;;;;;;5034898;28;20040;-63
2022/03/22 06:46:56;;;;;;;65.93;32.45;;;8.00;99.90;;;;;;5015951;28;20034;-62
2022/03/22 06:49:23;;;;;;;59.70;32.00;;;8.10;99.90;;;;;;5015421;28;20091;-63
2022/03/22 06:51:49;;;;;;;63.97;33.10;;;8.10;99.90;;;;;;5013787;28;20057;-63
2022/03/22 06:54:15;;;;;;;65.82;33.88;;;8.20;99.90;;;;;;5009461;28;20040;-63
2022/03/22 06:56:41;;;;;;;69.43;35.08;;;8.30;99.90;;;;;;5013892;28;20026;-63
2022/03/22 06:59:06;;;;;;;68.47;34.38;;;8.30;99.90;;;;;;5013074;28;20026;-63
2022/03/22 07:01:32;;;;;;;71.40;34.97;;;8.40;99.90;;;;;;5013790;28;20034;-62
2022/03/22 07:03:57;;;;;;;69.30;35.25;;;8.50;99.90;;;;;;5013829;28;20036;-62
2022/03/22 07:06:23;;;;;;;63.05;32.72;;;8.60;99.90;;;;;;5011681;28;20061;-65
2022/03/22 07:08:49;;;;;;;63.80;33.55;;;8.80;99.90;;;;;;5012229;28;20021;-65
2022/03/22 07:13:59;;;;;;;68.05;34.40;;;8.90;99.90;;;;;;5013518;28;20048;-64
2022/03/22 07:16:27;;;;;;;69.68;35.17;;;9.10;99.90;;;;;;5013373;28;20038;-66
2022/03/22 07:18:53;;;;;;;63.85;33.75;;;9.20;99.90;;;;;;5012196;28;20030;-66
2022/03/22 07:21:19;;;;;;;63.70;33.17;;;9.40;99.90;;;;;;5011542;28;20032;-65
2022/03/22 07:23:44;;;;;;;62.78;33.70;;;9.50;99.90;;;;;;5012523;28;20540;-65
2022/03/22 07:26:10;;;;;;;71.07;33.95;;;9.70;99.90;;;;;;5011090;28;20089;-64
2022/03/22 07:28:36;;;;;;;59.30;32.75;;;9.90;99.90;;;;;;5013607;28;20112;-65
2022/03/22 07:31:02;;;;;;;60.15;31.00;;;10.10;99.90;;;;;;5009456;28;20448;-63
2022/03/22 07:33:28;;;;;;;58.53;31.52;;;10.30;99.90;;;;;;4996904;28;20042;-67
2022/03/22 07:35:54;;;;;;;55.05;31.02;;;10.50;99.90;;;;;;4999935;28;20045;-62
2022/03/22 07:38:19;;;;;;;63.05;31.65;;;10.70;99.90;;;;;;5013710;28;20363;-64
2022/03/22 07:40:45;;;;;;;53.30;29.25;;;10.90;99.90;;;;;;5011789;28;20125;-66
2022/03/22 07:43:10;;;;;;;52.78;30.23;;;11.10;99.90;;;;;;5013463;28;20018;-64
2022/03/22 07:45:36;;;;;;;54.42;29.25;;;11.30;99.90;;;;;;5014137;28;20041;-64
2022/03/22 07:48:03;;;;;;;47.30;26.55;;;11.60;99.90;;;;;;5013417;28;20033;-64
2022/03/22 07:53:13;;;;;;;48.85;27.27;;;12.30;99.90;;;;;;5012868;28;20057;-64
2022/03/22 07:55:40;;;;;;;47.72;26.92;;;12.80;99.90;;;;;;5022878;28;20037;-63
2022/03/22 07:58:06;;;;;;;45.42;26.15;;;13.40;99.90;;;;;;5012947;28;20390;-63
2022/03/22 08:00:35;;;;;;;42.08;25.15;;;14.00;99.90;;;;;;5012832;28;20188;-65
2022/03/22 08:03:03;;;;;;;41.80;25.48;;;14.70;99.90;;;;;;5013170;28;20386;-63
2022/03/22 08:05:30;;;;;;;42.17;25.50;;;15.30;99.90;;;;;;5012350;28;20119;-63
2022/03/22 08:07:55;;;;;;;43.67;24.77;;;16.10;99.90;;;;;;5012422;28;20030;-62
2022/03/22 08:10:22;;;;;;;42.55;24.25;;;16.80;99.90;;;;;;5010426;28;20034;-62
2022/03/22 08:12:48;;;;;;;37.92;23.40;;;17.40;99.90;;;;;;5007939;28;20022;-63
2022/03/22 08:15:14;;;;;;;37.05;24.02;;;18.00;98.60;;;;;;5013092;28;20053;-66
2022/03/22 08:17:40;;;;;;;38.90;23.98;;;18.60;98.00;;;;;;5016140;28;20030;-63
2022/03/22 08:20:07;;;;;;;34.63;23.20;;;19.20;96.90;;;;;;5026298;28;20022;-65
2022/03/22 08:22:48;;;;;;;37.35;23.85;;;19.90;96.20;;;;;;5015021;28;20050;-65
2022/03/22 08:25:14;;;;;;;33.95;23.33;;;20.60;94.80;;;;;;5012634;28;20107;-63
2022/03/22 08:27:40;;;;;;;34.90;24.00;;;21.10;93.30;;;;;;5011101;28;20462;-66
2022/03/22 08:30:06;;;;;;;33.53;23.67;;;21.60;92.20;;;;;;5011219;28;20425;-63
2022/03/22 08:32:32;;;;;;;37.80;24.50;;;22.10;90.90;;;;;;5008274;28;20022;-66
2022/03/22 08:34:58;;;;;;;33.53;22.95;;;22.60;90.00;;;;;;5016448;28;20109;-65
2022/03/22 08:37:23;;;;;;;35.78;23.88;;;23.00;88.80;;;;;;5010282;28;20101;-65
2022/03/22 08:39:49;;;;;;;34.97;25.55;;;23.50;87.60;;;;;;5010161;28;20105;-62
2022/03/22 08:42:14;;;;;;;35.22;23.52;;;24.10;85.50;;;;;;5021074;28;20112;-62
2022/03/22 08:44:40;;;;;;;32.45;22.85;;;24.60;83.60;;;;;;5009966;28;20459;-64
2022/03/22 08:47:07;;;;;;;29.33;21.60;;;25.10;81.30;;;;;;5001824;28;20022;-64
2022/03/22 08:49:33;;;;;;;33.60;22.80;;;25.50;79.40;;;;;;5006113;28;20060;-62
2022/03/22 08:52:00;;;;;;;33.03;23.58;;;25.90;77.90;;;;;;5013618;28;20052;-63
2022/03/22 08:54:25;;;;;;;32.75;24.05;;;26.20;77.10;;;;;;5016596;28;20125;-65
2022/03/22 08:56:51;;;;;;;34.42;23.42;;;26.50;75.40;;;;;;5014766;28;20105;-66
2022/03/22 08:59:16;;;;;;;31.38;22.25;;;26.70;73.40;;;;;;5015125;28;20046;-65
2022/03/22 09:01:42;;;;;;;32.92;23.60;;;26.70;72.50;;;;;;5008039;28;20030;-65
2022/03/22 09:06:56;;;;;;;29.08;22.10;;;27.10;71.60;;;;;;5003758;28;20040;-65
2022/03/22 09:09:22;;;;;;;29.83;22.15;;;27.40;70.60;;;;;;5003955;28;20029;-63
2022/03/22 09:11:47;;;;;;;32.33;23.45;;;27.70;70.00;;;;;;5002153;28;20033;-63
2022/03/22 09:14:13;;;;;;;31.65;22.33;;;27.90;68.80;;;;;;5006715;28;20128;-63
2022/03/22 09:16:39;;;;;;;29.45;21.50;;;28.00;68.30;;;;;;5008135;28;20549;-63
2022/03/22 09:19:04;;;;;;;29.52;21.45;;;28.20;67.90;;;;;;5010712;28;20026;-63
2022/03/22 09:21:30;;;;;;;29.67;20.73;;;28.40;66.50;;;;;;5015725;28;20049;-62
2022/03/22 09:23:56;;;;;;;30.90;20.88;;;28.50;66.10;;;;;;5015870;28;20043;-62
2022/03/22 09:26:21;;;;;;;27.33;20.90;;;28.70;65.50;;;;;;5015821;28;20030;-64
2022/03/22 09:28:52;;;;;;;29.50;20.02;;;29.00;65.70;;;;;;5014317;28;20061;-62
2022/03/22 09:31:19;;;;;;;27.02;19.77;;;29.20;63.70;;;;;;5012978;28;20037;-62
2022/03/22 09:33:44;;;;;;;28.50;20.52;;;29.40;62.90;;;;;;5026291;28;20127;-61
2022/03/22 09:36:10;;;;;;;26.67;19.60;;;29.50;62.10;;;;;;5002065;28;20058;-62
2022/03/22 09:38:37;;;;;;;26.75;20.42;;;29.60;61.80;;;;;;5018055;28;20107;-62
2022/03/22 09:41:05;;;;;;;29.30;20.77;;;29.90;61.50;;;;;;5012468;28;20073;-61
2022/03/22 09:43:33;;;;;;;28.15;19.98;;;30.30;60.50;;;;;;5015075;28;20034;-62
2022/03/22 09:46:02;;;;;;;28.48;21.10;;;30.40;59.90;;;;;;5014417;28;20044;-62
2022/03/22 09:48:31;;;;;;;29.33;21.00;;;30.70;60.00;;;;;;5015913;28;20053;-62
2022/03/22 09:53:41;;;;;;;28.05;21.17;;;31.30;58.20;;;;;;5014074;28;20505;-62
2022/03/22 09:56:09;;;;;;;26.88;20.30;;;31.60;58.30;;;;;;5015275;28;20030;-63
2022/03/22 09:58:35;;;;;;;27.42;20.10;;;31.80;57.70;;;;;;5015746;28;20093;-63
2022/03/22 10:01:01;;;;;;;29.75;20.27;;;32.00;57.00;;;;;;5014769;28;20137;-63
2022/03/22 10:03:27;;;;;;;29.60;20.63;;;32.20;56.10;;;;;;5015560;28;20037;-63
2022/03/22 10:06:00;;;;;;;30.48;20.80;;;32.30;56.00;;;;;;5014907;28;20109;-62
2022/03/22 10:08:26;;;;;;;30.52;20.48;;;32.30;55.60;;;;;;5014116;28;20034;-62
2022/03/22 10:10:54;;;;;;;28.58;22.15;;;32.20;55.10;;;;;;5014903;28;20041;-62
2022/03/22 10:13:19;;;;;;;29.67;20.83;;;32.20;55.20;;;;;;5014035;28;20492;-62
2022/03/22 10:15:46;;;;;;;27.88;21.05;;;32.40;55.30;;;;;;5018580;28;20038;-62
2022/03/22 10:18:12;;;;;;;30.00;20.88;;;32.40;54.60;;;;;;5012026;28;20037;-62
2022/03/22 10:20:39;;;;;;;31.20;21.50;;;32.30;53.80;;;;;;5015278;28;20548;-62
2022/03/22 10:23:07;;;;;;;28.50;20.80;;;32.30;54.30;;;;;;5014809;28;20085;-62
2022/03/22 10:25:37;;;;;;;26.08;19.90;;;32.40;54.50;;;;;;5014647;28;20046;-62
2022/03/22 10:28:05;;;;;;;26.45;19.52;;;32.60;53.80;;;;;;5013098;28;20030;-62
2022/03/22 10:30:33;;;;;;;26.73;19.23;;;32.70;53.00;;;;;;5012131;28;20059;-62
2022/03/22 10:32:59;;;;;;;30.45;20.33;;;32.80;52.80;;;;;;5011102;28;20034;-62
2022/03/22 10:35:25;;;;;;;31.77;20.83;;;32.80;52.80;;;;;;5013407;28;20044;-62
2022/03/22 10:37:57;;;;;;;26.75;20.33;;;32.90;52.20;;;;;;5007250;28;20030;-62
2022/03/22 10:40:34;;;;;;;;;;;33.20;52.30;;;;;;5015704;28;20033;-62
2022/03/22 10:43:06;;;;;;;24.95;18.75;;;33.40;51.80;;;;;;5025548;28;19963;-62
2022/03/22 10:46:00;;;;;;;26.30;19.50;;;33.60;51.50;;;;;;5017921;28;20388;-62
2022/03/22 10:48:33;;;;;;;29.52;19.80;;;33.60;50.60;;;;;;5010402;28;20064;-62
2022/03/22 10:51:00;;;;;;;28.65;19.35;;;33.40;51.00;;;;;;5014751;28;20026;-62
2022/03/22 10:53:28;;;;;;;28.05;20.08;;;33.40;51.50;;;;;;5018839;28;20500;-62
2022/03/22 10:55:57;;;;;;;28.73;18.58;;;33.50;51.30;;;;;;5032734;28;20535;-62
2022/03/22 10:58:26;;;;;;;25.67;18.20;;;33.60;50.80;;;;;;5017185;28;20424;-62
2022/03/22 11:00:53;;;;;;;26.88;19.52;;;33.70;50.30;;;;;;5005550;28;20046;-63
2022/03/22 11:03:19;;;;;;;28.13;19.80;;;33.90;50.30;;;;;;5008108;28;20363;-62
2022/03/22 11:05:49;;;;;;;27.02;18.48;;;34.00;50.30;;;;;;5022645;28;20044;-62
2022/03/22 11:08:19;;;;;;;28.65;19.08;;;34.10;50.10;;;;;;5014932;28;20021;-63
2022/03/22 11:10:45;;;;;;;26.13;18.08;;;34.40;48.70;;;;;;5014236;28;20049;-63
2022/03/22 11:13:10;;;;;;;25.48;19.80;;;34.30;49.20;;;;;;5013072;28;20410;-62
2022/03/22 11:15:40;;;;;;;29.42;19.45;;;34.20;49.10;;;;;;5025801;28;20069;-62
2022/03/22 11:18:07;;;;;;;27.33;20.65;;;34.40;48.60;;;;;;5009951;28;20467;-62
2022/03/22 11:20:33;;;;;;;27.55;21.52;;;34.30;48.50;;;;;;5015726;28;20492;-62
2022/03/22 11:23:00;;;;;;;29.50;20.10;;;34.10;48.60;;;;;;5007369;28;20030;-62
2022/03/22 11:25:38;;;;;;;29.10;19.17;;;34.00;48.60;;;;;;5024479;28;20045;-63
2022/03/22 11:28:13;;;;;;;28.75;20.60;;;34.00;48.50;;;;;;5030377;28;20052;-62
2022/03/22 11:30:40;;;;;;;24.80;18.40;;;34.10;49.10;;;;;;5003464;28;20057;-63
2022/03/22 11:36:00;;;;;;;26.77;19.08;;;34.30;47.60;;;;;;5024366;28;20068;-63
2022/03/22 11:38:46;;;;;;;24.83;18.52;;;34.30;47.40;;;;;;5015258;28;20401;-62
2022/03/22 11:44:39;;;;;;;24.83;17.08;;;34.20;48.00;;;;;;5008287;28;20086;-63
2022/03/22 11:47:17;;;;;;;27.30;18.88;;;34.20;46.80;;;;;;5009455;28;20064;-62
2022/03/22 11:49:50;;;;;;;23.75;17.27;;;34.20;47.40;;;;;;5012114;28;20050;-62
2022/03/22 11:52:17;;;;;;;28.00;18.02;;;34.20;47.30;;;;;;5012653;28;20034;-62
2022/03/22 11:55:00;;;;;;;24.02;16.77;;;34.40;47.10;;;;;;5011990;28;20088;-62
2022/03/22 11:57:27;;;;;;;24.40;16.15;;;34.50;46.70;;;;;;5013187;28;20121;-62
2022/03/22 11:59:53;;;;;;;22.13;16.02;;;34.30;45.80;;;;;;5012997;28;20030;-62
2022/03/22 12:02:22;;;;;;;24.88;15.65;;;34.00;46.40;;;;;;5004894;28;20058;-62
2022/03/22 12:04:50;;;;;;;23.65;16.35;;;33.80;45.90;;;;;;5005183;28;20113;-63
2022/03/22 12:07:22;;;;;;;23.85;16.67;;;33.70;45.90;;;;;;5010977;28;20029;-63
2022/03/22 12:09:47;;;;;;;22.55;14.40;;;33.60;46.00;;;;;;5011478;28;20433;-66
2022/03/22 12:12:16;;;;;;;22.95;14.02;;;33.60;45.70;;;;;;4993285;28;20022;-65
2022/03/22 12:14:45;;;;;;;25.55;15.88;;;33.30;45.10;;;;;;4993805;28;20489;-63
2022/03/22 12:17:11;;;;;;;22.77;15.15;;;33.00;45.50;;;;;;5008297;28;20042;-63
2022/03/22 12:19:38;;;;;;;23.50;15.63;;;32.70;45.90;;;;;;5013377;28;20085;-62
2022/03/22 12:22:06;;;;;;;22.42;14.75;;;32.30;46.30;;;;;;5028728;28;20516;-63
2022/03/22 12:24:34;;;;;;;22.58;15.00;;;32.10;46.20;;;;;;5011735;28;20192;-62
2022/03/22 12:27:09;;;;;;;21.45;14.57;;;31.90;46.30;;;;;;5009989;28;20061;-62
2022/03/22 12:29:40;;;;;;;22.08;14.27;;;31.90;46.60;;;;;;5028486;28;20440;-62
2022/03/22 12:32:12;;;;;;;21.48;13.50;;;31.90;46.30;;;;;;5006799;28;20026;-62
2022/03/22 12:34:39;;;;;;;22.00;14.55;;;31.90;46.00;;;;;;5018032;28;20084;-63
2022/03/22 12:37:08;;;;;;;21.17;13.50;;;31.80;46.30;;;;;;5016601;28;20076;-62
2022/03/22 12:39:35;;;;;;;23.15;13.82;;;31.80;46.30;;;;;;5028004;28;20037;-62
2022/03/22 12:42:00;;;;;;;22.08;13.52;;;31.80;46.30;;;;;;5021154;28;20446;-62
2022/03/22 12:44:26;;;;;;;21.38;13.02;;;32.00;46.10;;;;;;5010150;28;20049;-67
2022/03/22 12:46:53;;;;;;;19.67;12.73;;;32.10;45.90;;;;;;5006672;28;20030;-65
2022/03/22 12:49:20;;;;;;;20.20;12.52;;;32.10;45.90;;;;;;5022891;28;20108;-63
2022/03/22 12:51:48;;;;;;;18.42;11.82;;;32.20;45.80;;;;;;5029647;28;20029;-65
2022/03/22 12:54:17;;;;;;;20.50;12.25;;;32.00;45.50;;;;;;5016198;28;20058;-65
2022/03/22 12:56:47;;;;;;;19.13;10.77;;;31.70;45.60;;;;;;5012350;28;20032;-65
2022/03/22 12:59:23;;;;;;;18.50;10.85;;;31.20;45.50;;;;;;5022493;28;20025;-63
2022/03/22 13:01:57;;;;;;;20.75;10.60;;;30.70;45.80;;;;;;5006708;28;20034;-63
2022/03/22 13:04:26;;;;;;;16.65;10.02;;;30.30;45.80;;;;;;5017266;28;20480;-62
2022/03/22 13:07:08;;;;;;;17.15;9.73;;;30.00;45.70;;;;;;5015566;28;20026;-62
2022/03/22 13:12:19;;;;;;;18.80;10.80;;;28.90;46.90;;;;;;5006716;28;20037;-62